Time;durP1;ratioP1;P1;durP2;ratioP2;P2;SDS_P1;SDS_P2;PMS_P1;PMS_P2;Temp;Humidity;BMP_temperature;BMP_pressure;BME280_temperature;BME280_humidity;BME280_pressure;Samples;Min_cycle;Max_cycle;Signal;HPM_P1;HPM_P2
2022/02/17 00:00:35;;;;;;;2.47;0.57;;;;;;;14.51;83.51;100222.69;5030336;28;20053;-65
2022/02/17 00:03:03;;;;;;;0.68;0.30;;;;;;;14.52;84.21;100209.66;5015444;28;20072;-65
2022/02/17 00:05:30;;;;;;;1.20;0.30;;;;;;;14.55;83.67;100212.53;5036140;28;23574;-63
2022/02/17 00:07:59;;;;;;;1.90;0.30;;;;;;;14.58;83.23;100202.69;5029898;28;20412;-63
2022/02/17 00:10:27;;;;;;;1.25;0.50;;;;;;;14.52;84.10;100207.66;5033200;28;20548;-63
2022/02/17 00:12:57;;;;;;;1.67;0.40;;;;;;;14.41;84.19;100203.78;5010079;28;20049;-63
2022/02/17 00:15:25;;;;;;;1.50;0.30;;;;;;;14.40;84.73;100206.91;5029319;28;20060;-63
2022/02/17 00:17:53;;;;;;;2.17;0.55;;;;;;;14.61;84.25;100210.28;5026431;28;20053;-63
2022/02/17 00:20:21;;;;;;;1.90;0.45;;;;;;;14.81;83.71;100203.75;5008947;28;20049;-63
2022/02/17 00:22:48;;;;;;;1.05;0.30;;;;;;;14.56;83.55;100205.81;5021763;28;20042;-63
2022/02/17 00:25:16;;;;;;;1.50;0.40;;;;;;;14.39;85.27;100205.28;5035575;28;20076;-62
2022/02/17 00:27:45;;;;;;;1.77;0.52;;;;;;;14.48;85.11;100208.72;5033710;28;20074;-63
2022/02/17 00:30:12;;;;;;;2.58;0.57;;;;;;;14.50;84.94;100221.09;4985273;28;20062;-64
2022/02/17 00:32:40;;;;;;;1.92;0.60;;;;;;;14.23;85.91;100232.06;5019871;28;20516;-63
2022/02/17 00:35:07;;;;;;;3.05;0.40;;;;;;;14.33;86.66;100231.63;5024409;28;20056;-63
2022/02/17 00:37:35;;;;;;;1.70;0.40;;;;;;;14.39;86.45;100225.50;5025230;28;20052;-63
2022/02/17 00:40:03;;;;;;;3.70;0.30;;;;;;;14.35;86.52;100238.44;5035319;28;20054;-62
2022/02/17 00:42:30;;;;;;;0.88;0.22;;;;;;;14.08;87.83;100236.38;5023646;28;20840;-63
2022/02/17 00:44:58;;;;;;;0.65;0.40;;;;;;;14.23;88.53;100254.22;5018680;28;20050;-63
2022/02/17 00:47:27;;;;;;;1.45;0.50;;;;;;;13.90;90.66;100272.94;5010418;28;20053;-63
2022/02/17 00:49:54;;;;;;;1.17;0.30;;;;;;;13.78;92.31;100271.00;5033341;28;20053;-63
2022/02/17 00:52:26;;;;;;;1.85;0.60;;;;;;;13.77;92.80;100279.66;5013937;28;20052;-62
2022/02/17 00:54:54;;;;;;;2.42;0.30;;;;;;;13.73;92.51;100284.25;5021079;28;20050;-62
2022/02/17 00:57:24;;;;;;;0.93;0.30;;;;;;;13.77;92.80;100302.63;5014971;28;20045;-62
2022/02/17 00:59:51;;;;;;;1.63;0.20;;;;;;;13.72;93.36;100293.72;5012069;28;20049;-65
2022/02/17 01:02:18;;;;;;;3.00;0.50;;;;;;;13.72;93.79;100302.81;5002317;28;20057;-63
2022/02/17 01:04:46;;;;;;;0.95;0.22;;;;;;;13.91;93.11;100313.34;5014077;28;20053;-65
2022/02/17 01:07:14;;;;;;;0.65;0.20;;;;;;;14.08;91.55;100302.03;5033869;28;20041;-63
2022/02/17 01:09:41;;;;;;;3.90;0.50;;;;;;;13.89;92.30;100301.81;5016755;28;20053;-62
2022/02/17 01:12:09;;;;;;;0.55;0.30;;;;;;;13.71;93.70;100309.50;5034859;28;20050;-63
2022/02/17 01:14:37;;;;;;;2.08;0.30;;;;;;;13.64;93.92;100314.00;5012134;28;20056;-63
2022/02/17 01:17:04;;;;;;;0.38;0.20;;;;;;;13.64;93.04;100319.53;5018607;28;20057;-63
2022/02/17 01:19:33;;;;;;;1.45;0.32;;;;;;;13.68;92.95;100314.94;5009027;28;20049;-63
2022/02/17 01:22:01;;;;;;;0.98;0.30;;;;;;;13.74;93.10;100296.97;5010487;28;20521;-63
2022/02/17 01:24:32;;;;;;;4.43;0.40;;;;;;;13.55;93.06;100312.13;5028852;28;20046;-62
2022/02/17 01:27:04;;;;;;;2.15;0.30;;;;;;;13.65;93.24;100332.22;5007483;28;20440;-63
2022/02/17 01:29:33;;;;;;;1.48;0.40;;;;;;;13.80;93.38;100323.25;5014446;28;20050;-63
2022/02/17 01:32:03;;;;;;;1.75;0.40;;;;;;;13.56;93.42;100329.56;5012661;28;20045;-63
2022/02/17 01:34:30;;;;;;;2.05;0.40;;;;;;;13.66;93.61;100342.94;5019827;28;20409;-63
2022/02/17 01:37:00;;;;;;;2.08;0.45;;;;;;;13.44;94.21;100369.06;5012083;28;20385;-63
2022/02/17 01:39:30;;;;;;;;;;;;;;;13.45;95.06;100354.09;5010672;28;20064;-64
2022/02/17 01:41:58;;;;;;;3.50;0.82;;;;;;;13.32;95.33;100357.13;5015627;28;19922;-63
2022/02/17 01:44:26;;;;;;;3.33;0.70;;;;;;;13.25;96.31;100384.56;5008173;28;20045;-64
2022/02/17 01:47:17;;;;;;;4.30;0.75;;;;;;;13.30;96.15;100379.59;5020692;28;20311;-64
2022/02/17 01:49:47;;;;;;;3.63;0.77;;;;;;;13.38;94.85;100377.91;5011716;28;20065;-63
2022/02/17 01:52:15;;;;;;;3.63;0.50;;;;;;;13.42;94.28;100373.31;5034000;28;20050;-62
2022/02/17 01:54:45;;;;;;;5.95;1.08;;;;;;;13.25;93.71;100366.00;5017119;28;20057;-63
2022/02/17 01:57:19;;;;;;;5.93;1.05;;;;;;;13.40;93.42;100372.84;5029847;28;20064;-63
2022/02/17 01:59:54;;;;;;;6.47;1.35;;;;;;;13.41;90.81;100394.66;5004288;28;20053;-63
2022/02/17 02:02:27;;;;;;;7.72;1.23;;;;;;;13.44;90.68;100380.13;5019173;28;20044;-63
2022/02/17 02:04:59;;;;;;;6.40;1.17;;;;;;;13.37;90.12;100392.91;5033948;28;20057;-64
2022/02/17 02:07:26;;;;;;;7.57;1.42;;;;;;;13.35;88.69;100382.16;5028472;28;20053;-63
2022/02/17 02:09:58;;;;;;;11.10;1.60;;;;;;;13.49;87.80;100398.47;5032518;28;20050;-64
2022/02/17 02:12:33;;;;;;;7.47;1.20;;;;;;;13.35;87.63;100390.44;5032425;28;20046;-64
2022/02/17 02:15:05;;;;;;;9.02;1.98;;;;;;;13.36;87.40;100389.31;5013071;28;20445;-64
2022/02/17 02:17:35;;;;;;;10.10;1.65;;;;;;;13.37;86.50;100398.44;5032127;28;20052;-63
2022/02/17 02:20:05;;;;;;;9.88;1.95;;;;;;;13.41;85.58;100407.66;5030627;28;20057;-63
2022/02/17 02:22:33;;;;;;;10.50;2.03;;;;;;;13.38;84.90;100417.47;5035847;28;20049;-63
2022/02/17 02:25:01;;;;;;;12.23;1.73;;;;;;;13.32;84.96;100410.50;5031536;28;20058;-63
2022/02/17 02:27:30;;;;;;;11.05;1.95;;;;;;;13.31;85.28;100421.91;5025459;28;20054;-64
2022/02/17 02:29:59;;;;;;;11.20;2.58;;;;;;;13.29;85.17;100402.88;5017374;28;20057;-62
2022/02/17 02:32:31;;;;;;;13.82;1.95;;;;;;;13.29;84.25;100411.19;5028361;28;20054;-63
2022/02/17 02:34:58;;;;;;;9.93;1.73;;;;;;;13.36;84.76;100408.69;5032109;28;20065;-63
2022/02/17 02:37:26;;;;;;;10.02;2.47;;;;;;;13.20;84.50;100415.16;5032378;28;20050;-63
2022/02/17 02:39:53;;;;;;;9.60;1.80;;;;;;;13.13;83.95;100431.50;5035870;28;20102;-63
2022/02/17 02:42:22;;;;;;;13.95;3.00;;;;;;;13.18;82.32;100428.53;5015656;28;20049;-63
2022/02/17 02:44:51;;;;;;;15.68;2.67;;;;;;;13.10;77.88;100443.22;5035962;28;20366;-64
2022/02/17 02:47:19;;;;;;;12.60;3.17;;;;;;;13.07;75.52;100430.09;5024963;28;20045;-63
2022/02/17 02:49:46;;;;;;;15.68;2.53;;;;;;;13.13;75.25;100432.31;5031377;28;20064;-64
2022/02/17 02:52:14;;;;;;;20.00;3.15;;;;;;;13.13;74.27;100437.84;5029552;28;20054;-65
2022/02/17 02:54:45;;;;;;;16.15;3.08;;;;;;;13.05;72.18;100460.84;5034980;28;20049;-64
2022/02/17 02:57:12;;;;;;;20.17;3.17;;;;;;;13.21;74.41;100444.47;5019562;28;20052;-64
2022/02/17 02:59:42;;;;;;;20.02;3.13;;;;;;;13.00;71.02;100438.91;5029865;28;20050;-63
2022/02/17 03:02:18;;;;;;;19.80;3.20;;;;;;;12.90;71.51;100425.44;5023641;28;20049;-63
2022/02/17 03:04:45;;;;;;;24.20;3.22;;;;;;;12.89;72.46;100423.03;5012621;28;20053;-64
2022/02/17 03:07:19;;;;;;;19.25;3.10;;;;;;;12.86;71.79;100437.53;5029986;28;20053;-63
2022/02/17 03:09:48;;;;;;;19.00;3.47;;;;;;;12.89;71.03;100439.59;5021137;28;20440;-63
2022/02/17 03:12:17;;;;;;;20.65;3.15;;;;;;;12.83;70.69;100439.00;5038386;28;20497;-62
2022/02/17 03:14:47;;;;;;;21.75;3.20;;;;;;;12.89;71.39;100457.00;5031176;28;20492;-63
2022/02/17 03:17:21;;;;;;;23.65;3.72;;;;;;;12.86;70.07;100463.22;5025273;28;20053;-62
2022/02/17 03:19:51;;;;;;;29.23;3.78;;;;;;;13.07;70.27;100438.38;5023038;28;20054;-63
2022/02/17 03:22:18;;;;;;;24.52;3.38;;;;;;;12.99;69.11;100439.25;5027096;28;20061;-63
2022/02/17 03:24:47;;;;;;;22.52;4.38;;;;;;;12.90;69.84;100438.47;5023274;28;20532;-63
2022/02/17 03:27:15;;;;;;;24.48;4.40;;;;;;;12.90;68.47;100455.84;5040634;28;20046;-64
2022/02/17 03:29:43;;;;;;;23.88;3.50;;;;;;;12.86;68.40;100443.88;5026714;28;20049;-63
2022/02/17 03:32:10;;;;;;;21.60;3.60;;;;;;;12.87;68.35;100453.75;5015842;28;20062;-63
2022/02/17 03:34:40;;;;;;;20.73;3.57;;;;;;;12.73;67.54;100450.44;5030368;28;20130;-63
2022/02/17 03:37:08;;;;;;;25.83;3.72;;;;;;;12.82;67.46;100465.03;5025031;28;20046;-63
2022/02/17 03:39:37;;;;;;;24.67;4.43;;;;;;;12.76;67.14;100474.63;5000806;28;20527;-63
2022/02/17 03:42:18;;;;;;;23.35;3.45;;;;;;;12.72;67.62;100470.94;5030686;28;20060;-64
2022/02/17 03:44:47;;;;;;;26.42;3.95;;;;;;;12.76;67.34;100473.84;5029363;28;20050;-64
2022/02/17 03:47:26;;;;;;;32.95;5.55;;;;;;;12.77;67.98;100467.16;5033965;28;20041;-64
2022/02/17 03:50:04;;;;;;;23.20;4.55;;;;;;;12.90;68.01;100469.69;5033235;28;20049;-62
2022/02/17 03:52:34;;;;;;;24.20;4.55;;;;;;;12.86;67.75;100485.31;5009662;28;20745;-63
2022/02/17 03:55:16;;;;;;;24.25;4.22;;;;;;;12.88;68.63;100487.75;5032035;28;20535;-63
2022/02/17 03:57:45;;;;;;;30.13;5.03;;;;;;;12.89;68.20;100487.41;5022383;28;20061;-63
2022/02/17 04:00:15;;;;;;;25.23;4.30;;;;;;;12.83;68.94;100483.22;5008945;28;20054;-63
2022/02/17 04:02:46;;;;;;;30.45;5.15;;;;;;;12.76;70.02;100502.28;5029272;28;20057;-65
2022/02/17 04:05:19;;;;;;;30.02;4.00;;;;;;;12.91;68.64;100512.78;5034840;28;20148;-64
2022/02/17 04:07:47;;;;;;;29.13;4.35;;;;;;;12.80;68.76;100514.28;5027603;28;20057;-63
2022/02/17 04:10:21;;;;;;;23.85;4.50;;;;;;;12.62;69.28;100526.59;5032881;28;20133;-64
2022/02/17 04:12:48;;;;;;;25.02;5.13;;;;;;;12.77;69.50;100522.44;5031604;28;20064;-63
2022/02/17 04:15:17;;;;;;;25.75;4.72;;;;;;;12.70;68.45;100533.19;5040347;28;20076;-63
2022/02/17 04:17:45;;;;;;;21.63;4.20;;;;;;;12.59;68.31;100540.25;5032357;28;20061;-63
2022/02/17 04:20:32;;;;;;;31.20;5.10;;;;;;;12.76;66.47;100542.94;5018853;28;20138;-62
2022/02/17 04:23:14;;;;;;;28.35;6.05;;;;;;;12.76;66.20;100554.78;5044919;28;20068;-63
2022/02/17 04:25:47;;;;;;;24.60;4.80;;;;;;;12.79;65.15;100562.44;5030148;28;20061;-63
2022/02/17 04:28:33;;;;;;;33.65;5.82;;;;;;;12.57;63.68;100557.13;5030931;28;20041;-62
2022/02/17 04:31:00;;;;;;;30.27;5.10;;;;;;;12.43;64.04;100551.81;5021869;28;20635;-63
2022/02/17 04:33:33;;;;;;;35.67;4.95;;;;;;;12.51;64.80;100577.00;5027298;28;20049;-63
2022/02/17 04:36:14;;;;;;;29.52;5.55;;;;;;;12.55;63.62;100583.50;5027467;28;20061;-63
2022/02/17 04:38:42;;;;;;;35.10;6.03;;;;;;;12.46;63.16;100578.00;5013358;28;20531;-63
2022/02/17 04:43:57;;;;;;;34.33;5.57;;;;;;;12.53;64.27;100600.41;5034171;28;20053;-62
2022/02/17 04:46:25;;;;;;;38.47;6.45;;;;;;;12.28;62.25;100604.84;5030464;28;20497;-64
2022/02/17 04:48:53;;;;;;;42.55;6.93;;;;;;;12.17;62.69;100611.00;5033543;28;20046;-63
2022/02/17 04:51:20;;;;;;;34.22;5.78;;;;;;;12.22;61.66;100619.16;5028718;28;20393;-63
2022/02/17 04:53:47;;;;;;;37.28;6.85;;;;;;;12.36;62.61;100620.56;5023835;28;20057;-63
2022/02/17 04:56:14;;;;;;;40.33;7.07;;;;;;;12.19;60.53;100636.34;5022212;28;20050;-62
2022/02/17 04:58:42;;;;;;;42.90;6.93;;;;;;;12.12;61.48;100636.03;5035186;28;20049;-62
2022/02/17 05:01:09;;;;;;;44.80;7.53;;;;;;;12.21;60.70;100647.88;5027122;28;20554;-63
2022/02/17 05:04:00;;;;;;;;;;;;;;;12.24;60.82;100661.84;5024474;28;20061;-62
2022/02/17 05:06:28;;;;;;;38.65;7.65;;;;;;;12.19;59.58;100648.22;5030344;28;19928;-62
2022/02/17 05:08:56;;;;;;;40.25;6.10;;;;;;;11.99;59.32;100659.91;5029537;28;20053;-63
2022/02/17 05:11:23;;;;;;;36.70;6.20;;;;;;;12.04;59.05;100662.53;5028941;28;20057;-63
2022/02/17 05:13:52;;;;;;;41.85;7.70;;;;;;;12.03;58.17;100660.09;5022252;28;20057;-63
2022/02/17 05:16:20;;;;;;;39.85;6.82;;;;;;;12.27;57.59;100657.63;5028707;28;20050;-63
2022/02/17 05:18:48;;;;;;;33.53;6.50;;;;;;;12.21;58.59;100647.88;5029462;28;20053;-63
2022/02/17 05:21:18;;;;;;;34.78;6.55;;;;;;;12.17;57.91;100667.06;5036676;28;20425;-62
2022/02/17 05:24:04;;;;;;;39.13;6.60;;;;;;;12.14;58.37;100672.41;5027124;28;20058;-63
2022/02/17 05:27:10;;;;;;;39.13;7.53;;;;;;;11.83;57.72;100691.88;5009359;28;20054;-62
2022/02/17 05:29:44;;;;;;;39.55;7.50;;;;;;;11.85;58.64;100688.78;5028593;28;20181;-64
2022/02/17 05:32:39;;;;;;;37.58;7.25;;;;;;;11.86;58.93;100684.88;5027247;28;20058;-63
2022/02/17 05:35:21;;;;;;;37.83;7.78;;;;;;;11.86;57.69;100698.69;5026991;28;20048;-62
2022/02/17 05:37:48;;;;;;;34.45;6.25;;;;;;;12.02;59.48;100695.16;5018681;28;20042;-63
2022/02/17 05:40:35;;;;;;;37.20;6.75;;;;;;;12.00;58.52;100697.41;5001031;28;20060;-63
2022/02/17 05:43:04;;;;;;;41.40;7.00;;;;;;;11.98;57.92;100696.94;5031622;28;20050;-63
2022/02/17 05:45:31;;;;;;;40.80;6.72;;;;;;;12.07;57.74;100706.03;5028355;28;20053;-62
2022/02/17 05:47:59;;;;;;;43.95;7.95;;;;;;;11.87;58.82;100703.88;5023954;28;20064;-63
2022/02/17 05:50:26;;;;;;;41.45;6.50;;;;;;;11.87;58.67;100705.84;5028637;28;20060;-62
2022/02/17 05:53:02;;;;;;;42.13;7.72;;;;;;;11.82;58.69;100714.28;5032693;28;20049;-63
2022/02/17 05:55:30;;;;;;;43.90;6.72;;;;;;;11.82;59.11;100717.84;5026521;28;20545;-63
2022/02/17 05:57:57;;;;;;;32.78;6.43;;;;;;;11.92;58.74;100731.34;5033442;28;20500;-62
2022/02/17 06:00:24;;;;;;;38.95;6.95;;;;;;;12.10;59.15;100704.59;5024654;28;20065;-63
2022/02/17 06:02:52;;;;;;;47.88;7.57;;;;;;;12.35;58.82;100710.09;5029127;28;20053;-63
2022/02/17 06:05:19;;;;;;;50.95;7.22;;;;;;;12.17;59.86;100713.16;5029201;28;23263;-61
2022/02/17 06:07:47;;;;;;;48.25;7.93;;;;;;;11.82;60.45;100726.13;5027049;28;20065;-64
2022/02/17 06:10:20;;;;;;;44.10;7.72;;;;;;;11.72;61.28;100720.91;5027902;28;20057;-63
2022/02/17 06:12:47;;;;;;;54.15;9.07;;;;;;;11.78;61.96;100724.34;5024210;28;20058;-63
2022/02/17 06:15:19;;;;;;;42.05;7.85;;;;;;;11.78;62.46;100735.38;5032843;28;20057;-63
2022/02/17 06:17:46;;;;;;;49.92;7.38;;;;;;;11.81;62.58;100745.75;5022977;28;20053;-63
2022/02/17 06:20:13;;;;;;;46.83;8.80;;;;;;;11.93;62.17;100741.25;5023811;28;20053;-63
2022/02/17 06:22:48;;;;;;;48.35;7.47;;;;;;;11.94;62.42;100744.84;5028405;28;20050;-62
2022/02/17 06:25:16;;;;;;;40.70;7.50;;;;;;;11.67;63.88;100737.63;5025227;28;20497;-62
2022/02/17 06:27:44;;;;;;;53.28;7.78;;;;;;;11.79;64.08;100739.75;5031493;28;20074;-63
2022/02/17 06:30:11;;;;;;;44.80;8.38;;;;;;;11.64;65.54;100746.53;5023234;28;20049;-64
2022/02/17 06:32:45;;;;;;;50.47;7.90;;;;;;;11.59;65.73;100754.09;5023594;28;20062;-63
2022/02/17 06:35:13;;;;;;;49.53;8.45;;;;;;;11.71;65.54;100763.44;5027464;28;20061;-63
2022/02/17 06:37:40;;;;;;;46.10;8.63;;;;;;;11.72;64.74;100775.28;5022282;28;20920;-64
2022/02/17 06:40:10;;;;;;;47.03;8.60;;;;;;;11.52;64.07;100782.16;5030552;28;20061;-64
2022/02/17 06:42:37;;;;;;;42.63;8.55;;;;;;;11.38;63.47;100798.00;5032013;28;20068;-64
2022/02/17 06:45:05;;;;;;;56.78;9.00;;;;;;;11.52;63.67;100807.00;5027893;28;20068;-66
2022/02/17 06:47:37;;;;;;;47.45;8.70;;;;;;;11.50;63.32;100800.97;5015345;28;20050;-64
2022/02/17 06:50:07;;;;;;;52.03;9.07;;;;;;;11.49;63.25;100799.31;5028594;28;20408;-66
2022/02/17 06:52:34;;;;;;;49.55;7.82;;;;;;;11.31;63.37;100814.97;5036633;28;20408;-64
2022/02/17 06:55:03;;;;;;;47.72;8.68;;;;;;;11.33;62.69;100811.91;5032344;28;20053;-64
2022/02/17 06:57:31;;;;;;;53.58;8.13;;;;;;;11.45;63.36;100812.16;5037268;28;20049;-63
2022/02/17 07:00:02;;;;;;;48.10;9.13;;;;;;;11.53;64.22;100805.03;5027781;28;20046;-64
2022/02/17 07:02:33;;;;;;;56.83;10.43;;;;;;;11.40;63.39;100816.97;5028081;28;20057;-63
2022/02/17 07:05:02;;;;;;;43.85;8.07;;;;;;;11.17;62.91;100824.47;5027604;28;20046;-64
2022/02/17 07:07:32;;;;;;;49.83;7.75;;;;;;;11.32;63.86;100818.53;5023750;28;20069;-63
2022/02/17 07:09:59;;;;;;;53.80;9.60;;;;;;;11.26;65.01;100819.81;5029061;28;20045;-64
2022/02/17 07:12:27;;;;;;;51.50;9.27;;;;;;;11.40;62.48;100841.81;5016541;28;20077;-63
2022/02/17 07:14:57;;;;;;;53.85;8.95;;;;;;;11.41;62.78;100835.97;5029672;28;20054;-63
2022/02/17 07:17:24;;;;;;;50.05;9.85;;;;;;;11.49;65.75;100834.41;5030356;28;20057;-62
2022/02/17 07:19:52;;;;;;;53.08;8.73;;;;;;;11.65;63.83;100846.66;5029398;28;20050;-62
2022/02/17 07:22:19;;;;;;;58.17;9.25;;;;;;;11.53;64.42;100849.16;5031195;28;20061;-62
2022/02/17 07:24:48;;;;;;;64.45;8.13;;;;;;;11.57;63.80;100839.94;5010140;28;20049;-62
2022/02/17 07:27:18;;;;;;;51.97;8.30;;;;;;;11.61;63.24;100842.91;5018626;28;20058;-63
2022/02/17 07:29:45;;;;;;;51.03;9.80;;;;;;;11.57;63.53;100842.72;5032708;28;20060;-63
2022/02/17 07:32:13;;;;;;;51.22;8.23;;;;;;;11.41;64.87;100851.69;5038249;28;20045;-62
2022/02/17 07:34:40;;;;;;;49.80;8.77;;;;;;;11.53;64.42;100869.28;5038995;28;20068;-61
2022/02/17 07:37:07;;;;;;;69.20;9.77;;;;;;;11.92;66.03;100874.88;5031769;28;20078;-62
2022/02/17 07:39:35;;;;;;;52.47;9.68;;;;;;;12.08;64.57;100887.13;5035272;28;20045;-62
2022/02/17 07:42:02;;;;;;;60.30;9.82;;;;;;;12.21;61.91;100890.91;5021051;28;20054;-62
2022/02/17 07:44:29;;;;;;;51.08;9.75;;;;;;;12.10;62.78;100884.84;5025759;28;20412;-62
2022/02/17 07:46:57;;;;;;;60.75;9.93;;;;;;;11.81;63.25;100886.50;5033621;28;20053;-62
2022/02/17 07:49:24;;;;;;;58.28;9.43;;;;;;;12.00;63.42;100904.47;5016480;28;20049;-61
2022/02/17 07:51:51;;;;;;;59.97;9.38;;;;;;;12.05;63.23;100903.50;5011662;28;20058;-61
2022/02/17 07:54:19;;;;;;;46.75;8.57;;;;;;;11.86;63.95;100911.22;5034347;28;20049;-61
2022/02/17 07:56:46;;;;;;;65.63;10.98;;;;;;;12.02;64.26;100904.16;5008419;28;20057;-61
2022/02/17 07:59:16;;;;;;;58.40;9.38;;;;;;;12.11;63.25;100893.97;5027708;28;20049;-61
2022/02/17 08:01:43;;;;;;;58.70;9.80;;;;;;;11.72;63.85;100903.03;5001288;28;20069;-61
2022/02/17 08:04:12;;;;;;;52.05;9.65;;;;;;;11.65;64.20;100910.94;5033700;28;20072;-62
2022/02/17 08:06:43;;;;;;;50.33;9.52;;;;;;;11.94;63.70;100902.16;5035890;28;20057;-61
2022/02/17 08:09:10;;;;;;;51.10;9.48;;;;;;;12.11;63.26;100903.06;5024416;28;20056;-62
2022/02/17 08:11:38;;;;;;;63.60;10.57;;;;;;;12.29;62.93;100887.38;5016009;28;20057;-61
2022/02/17 08:14:05;;;;;;;51.85;8.93;;;;;;;11.96;62.95;100902.66;5031704;28;20049;-62
2022/02/17 08:16:33;;;;;;;54.10;10.02;;;;;;;11.85;64.16;100907.66;5028237;28;20057;-62
2022/02/17 08:19:04;;;;;;;55.03;8.70;;;;;;;12.08;63.13;100914.72;5034426;28;20053;-63
2022/02/17 08:21:47;;;;;;;52.90;9.07;;;;;;;11.92;63.08;100904.44;5027855;28;20061;-62
2022/02/17 08:24:17;;;;;;;50.05;8.70;;;;;;;11.93;63.13;100925.38;5015424;28;20045;-61
2022/02/17 08:26:45;;;;;;;54.35;10.02;;;;;;;11.84;62.65;100941.88;5023785;28;20046;-62
2022/02/17 08:29:12;;;;;;;58.05;10.88;;;;;;;12.12;62.91;100956.31;5012273;28;20050;-61
2022/02/17 08:31:40;;;;;;;64.40;9.88;;;;;;;11.90;62.68;100959.13;5028721;28;20082;-62
2022/02/17 08:34:08;;;;;;;47.47;8.88;;;;;;;11.92;62.77;100960.47;5014224;28;20052;-63
2022/02/17 08:36:36;;;;;;;61.33;9.90;;;;;;;12.02;62.21;100959.34;4998581;28;20048;-61
2022/02/17 08:39:06;;;;;;;48.15;9.02;;;;;;;11.86;62.00;100960.88;5032556;28;20054;-62
2022/02/17 08:41:35;;;;;;;61.42;10.40;;;;;;;11.93;63.26;100959.31;5027579;28;20531;-64
2022/02/17 08:44:06;;;;;;;51.95;9.98;;;;;;;12.30;61.63;100961.63;5008443;28;20049;-62
2022/02/17 08:46:34;;;;;;;53.70;9.82;;;;;;;12.37;61.40;100969.44;5031158;28;20076;-61
2022/02/17 08:49:06;;;;;;;52.55;8.70;;;;;;;12.30;61.63;100971.84;5026199;28;20061;-61
2022/02/17 08:51:35;;;;;;;53.83;10.80;;;;;;;11.99;61.47;100966.34;5020032;28;20056;-62
2022/02/17 08:54:04;;;;;;;58.90;10.18;;;;;;;12.06;61.48;100977.75;4997886;28;20058;-62
2022/02/17 08:56:32;;;;;;;62.92;10.20;;;;;;;12.07;61.98;100981.31;5027876;28;20068;-62
2022/02/17 08:59:00;;;;;;;59.58;11.00;;;;;;;11.95;62.21;100964.50;5033638;28;20049;-61
2022/02/17 09:01:29;;;;;;;71.35;11.18;;;;;;;11.97;62.36;100974.13;5020220;28;20080;-62
2022/02/17 09:03:56;;;;;;;54.20;9.73;;;;;;;12.09;61.71;100973.53;5014465;28;20510;-62
2022/02/17 09:06:24;;;;;;;73.88;10.77;;;;;;;12.10;61.80;100972.41;5006356;28;20053;-62
2022/02/17 09:08:51;;;;;;;59.75;10.15;;;;;;;12.01;61.64;100958.53;5020070;28;20513;-62
2022/02/17 09:11:18;;;;;;;56.15;10.07;;;;;;;12.14;61.47;100968.69;5030721;28;20057;-63
2022/02/17 09:13:46;;;;;;;56.50;10.82;;;;;;;12.02;61.59;100964.88;5034347;28;20049;-62
2022/02/17 09:16:14;;;;;;;55.55;10.40;;;;;;;12.00;61.53;100978.19;5021167;28;20397;-61
2022/02/17 09:18:41;;;;;;;61.42;10.57;;;;;;;12.02;61.59;100967.63;5013502;28;20508;-61
2022/02/17 09:21:16;;;;;;;66.75;11.32;;;;;;;12.17;61.35;100987.38;5026644;28;20042;-62
2022/02/17 09:23:43;;;;;;;54.20;9.32;;;;;;;12.10;61.00;100997.25;5029743;28;20068;-61
2022/02/17 09:26:10;;;;;;;58.28;11.48;;;;;;;12.01;62.08;100999.94;5030539;28;20053;-62
2022/02/17 09:28:38;;;;;;;59.38;9.77;;;;;;;12.21;61.09;100998.59;5032134;28;20385;-62
2022/02/17 09:31:25;;;;;;;63.53;9.18;;;;;;;12.12;61.27;100998.56;5034643;28;20042;-62
2022/02/17 09:33:56;;;;;;;57.25;10.77;;;;;;;11.80;61.80;100998.03;5034367;28;20053;-61
2022/02/17 09:36:28;;;;;;;60.13;10.80;;;;;;;12.01;61.64;101007.44;5026019;28;20063;-63
2022/02/17 09:38:56;;;;;;;61.65;9.52;;;;;;;12.01;61.43;101026.75;5033346;28;20057;-61
2022/02/17 09:41:23;;;;;;;62.47;10.30;;;;;;;12.12;61.74;101026.16;5035519;28;20038;-60
2022/02/17 09:43:52;;;;;;;57.70;9.93;;;;;;;12.32;60.95;101025.66;5038680;28;20498;-61
2022/02/17 09:46:21;;;;;;;50.97;10.23;;;;;;;12.21;60.35;101028.97;5036297;28;20398;-62
2022/02/17 09:49:01;;;;;;;57.25;10.25;;;;;;;11.92;61.27;101042.44;5028119;28;20060;-62
2022/02/17 09:51:29;;;;;;;50.83;9.43;;;;;;;11.90;61.59;101042.78;5020212;28;20053;-62
2022/02/17 09:53:58;;;;;;;51.85;9.32;;;;;;;12.00;61.63;101036.97;5029561;28;20483;-61
2022/02/17 09:56:25;;;;;;;61.50;10.55;;;;;;;12.26;61.45;101049.00;5021001;28;20057;-62
2022/02/17 09:58:54;;;;;;;54.83;10.32;;;;;;;11.91;61.09;101036.09;5034650;28;20049;-62
2022/02/17 10:01:26;;;;;;;53.20;9.57;;;;;;;12.08;61.78;101035.41;5029292;28;20049;-62
2022/02/17 10:04:09;;;;;;;55.00;9.75;;;;;;;12.11;61.08;101045.81;5030820;28;20060;-61
2022/02/17 10:06:57;;;;;;;62.22;9.98;;;;;;;12.32;61.03;101044.16;5020986;28;20053;-62
2022/02/17 10:09:41;;;;;;;46.03;9.48;;;;;;;12.61;59.46;101057.44;5031703;28;20409;-61
2022/02/17 10:12:11;;;;;;;48.45;9.05;;;;;;;12.54;59.84;101051.56;5017201;28;20054;-62
2022/02/17 10:14:39;;;;;;;58.05;9.50;;;;;;;12.56;58.52;101061.19;5031255;28;20049;-61
2022/02/17 10:17:09;;;;;;;59.88;10.73;;;;;;;12.55;58.94;101056.78;5018873;28;20064;-62
2022/02/17 10:19:40;;;;;;;49.42;9.20;;;;;;;12.74;59.31;101062.88;5019025;28;20060;-63
2022/02/17 10:22:11;;;;;;;;;;;;;;;12.63;58.59;101066.22;5033664;28;20515;-61
2022/02/17 10:24:45;;;;;;;52.22;9.68;;;;;;;12.80;58.23;101075.41;5032529;28;19929;-63
2022/02/17 10:27:18;;;;;;;45.60;8.25;;;;;;;12.62;58.43;101072.91;5035894;28;20068;-63
2022/02/17 10:30:10;;;;;;;56.20;8.50;;;;;;;12.62;58.42;101076.50;5003179;28;20069;-65
2022/02/17 10:33:00;;;;;;;49.35;9.05;;;;;;;12.41;58.48;101086.47;5037844;28;20057;-65
2022/02/17 10:35:28;;;;;;;;;;;;;;;12.67;59.01;101079.13;5016657;28;20049;-65
2022/02/17 10:37:57;;;;;;;38.80;7.22;;;;;;;12.85;58.47;101072.50;5030975;28;20369;-63
2022/02/17 10:40:27;;;;;;;51.13;9.25;;;;;;;13.12;57.50;101085.31;5022716;28;20046;-64
2022/02/17 10:43:06;;;;;;;57.97;9.27;;;;;;;12.80;57.39;101097.53;5000419;28;20065;-64
2022/02/17 10:45:47;;;;;;;51.83;8.73;;;;;;;12.71;57.92;101084.81;5034642;28;20048;-64
2022/02/17 10:48:18;;;;;;;45.38;9.15;;;;;;;12.65;58.54;101083.31;5046604;28;20045;-64
2022/02/17 10:50:48;;;;;;;41.17;8.10;;;;;;;12.42;57.08;101096.38;5037092;28;20056;-64
2022/02/17 10:53:18;;;;;;;51.83;9.77;;;;;;;12.53;57.21;101119.84;5019879;28;20046;-64
2022/02/17 10:55:57;;;;;;;54.53;9.38;;;;;;;12.64;57.72;101112.91;5013480;28;20061;-63
2022/02/17 10:58:27;;;;;;;52.38;8.88;;;;;;;12.78;57.67;101119.16;5027186;28;20050;-64
2022/02/17 11:01:02;;;;;;;47.38;8.18;;;;;;;12.82;55.69;101111.84;4983739;28;20045;-66
2022/02/17 11:03:32;;;;;;;48.45;8.65;;;;;;;12.84;55.89;101108.78;5020442;28;20057;-64
2022/02/17 11:06:10;;;;;;;47.35;7.70;;;;;;;12.62;56.72;101122.66;5031535;28;20053;-63
2022/02/17 11:08:39;;;;;;;45.03;7.65;;;;;;;12.66;56.52;101113.41;5030271;28;20057;-64
2022/02/17 11:11:08;;;;;;;46.78;7.85;;;;;;;12.89;56.07;101128.81;5033371;28;20412;-64
2022/02/17 11:13:36;;;;;;;45.35;8.60;;;;;;;12.99;56.02;101122.97;5036773;28;20054;-62
2022/02/17 11:16:09;;;;;;;44.40;8.05;;;;;;;12.74;55.80;101126.47;5019544;28;20045;-61
2022/02/17 11:18:39;;;;;;;42.15;8.10;;;;;;;12.82;55.88;101125.69;5030509;28;20045;-67
2022/02/17 11:21:08;;;;;;;47.35;8.45;;;;;;;13.01;56.02;101120.72;5004018;28;20037;-64
2022/02/17 11:23:36;;;;;;;48.80;7.88;;;;;;;13.14;55.45;101127.31;4999017;28;20045;-64
2022/02/17 11:26:20;;;;;;;45.13;7.93;;;;;;;12.94;55.99;101117.59;5023575;28;20046;-67
2022/02/17 11:28:50;;;;;;;35.63;8.07;;;;;;;12.76;55.90;101128.91;5027637;28;20049;-64
2022/02/17 11:31:19;;;;;;;55.78;8.43;;;;;;;12.89;55.82;101133.50;5015064;28;20429;-62
2022/02/17 11:33:58;;;;;;;44.65;7.90;;;;;;;12.80;55.38;101124.34;5034141;28;20390;-68
2022/02/17 11:36:25;;;;;;;43.00;7.93;;;;;;;12.82;56.16;101133.97;5013337;28;20054;-66